Athens, Vermont
Current Conditions -  °F | °C
As of 2:34 PM on Tuesday 21 Oct 2014 (Local Time) from KVSF Reporting Station
Light Rain Light Rain  
Wind Chill: 47°   Ceiling: 1300
Heat Index: 49°   Visibility: 6mi
Dew Point: 47°   Wind: 5mph
Humidity: 93%   Direction: 60°ENE
Pressure: 29.96"   Gusts: NA
Location:  43.2811°N, 72.6352°W
Report Text: KVSF 211834Z AUTO 06004KT 6SM -RA BR SCT007 OVC013 09/08 A2996 RMK AO2 RAE1759B17 P0000 T00940083
Loading
Personal Weather Stations






























Interactive Weather Map
Tropical Storm Tracking
New forecast layout! Learn more

10-Day Weather Forecast

Advertisements
Track Severe Weather on mobile